createdAt,value
2022-12-09T00:03:13.369Z,1.69
2022-12-09T00:08:45.024Z,1.65
2022-12-09T00:14:16.768Z,1.63
2022-12-09T00:19:48.370Z,1.6
2022-12-09T00:25:20.350Z,1.63
2022-12-09T00:30:51.897Z,1.57
2022-12-09T00:36:23.671Z,1.58
2022-12-09T00:41:55.414Z,1.6
2022-12-09T00:47:27.074Z,1.57
2022-12-09T00:52:58.901Z,1.57
2022-12-09T00:58:37.279Z,1.56
2022-12-09T01:04:08.970Z,1.47
2022-12-09T01:09:40.314Z,1.34
2022-12-09T01:15:12.170Z,1.26
2022-12-09T01:20:43.791Z,1.13
2022-12-09T01:26:15.471Z,1.09
2022-12-09T01:31:47.046Z,1.18
2022-12-09T01:37:18.877Z,1.18
2022-12-09T01:42:51.539Z,1.07
2022-12-09T01:48:22.367Z,0.93
2022-12-09T01:53:54.146Z,0.84
2022-12-09T01:59:30.341Z,0.75
2022-12-09T02:05:01.949Z,0.77
2022-12-09T02:10:33.502Z,0.85
2022-12-09T02:16:05.445Z,0.88
2022-12-09T02:21:37.002Z,0.85
2022-12-09T02:27:08.905Z,0.72
2022-12-09T02:32:40.447Z,0.54
2022-12-09T02:38:12.393Z,0.56
2022-12-09T02:43:49.530Z,0.62
2022-12-09T02:49:15.886Z,0.49
2022-12-09T02:54:47.650Z,0.61
2022-12-09T03:00:25.487Z,0.54
2022-12-09T03:05:57.176Z,0.41
2022-12-09T03:11:29.117Z,0.52
2022-12-09T03:17:01.092Z,0.47
2022-12-09T03:22:32.524Z,0.37
2022-12-09T03:28:04.169Z,0.42
2022-12-09T03:33:35.875Z,0.46
2022-12-09T03:39:07.532Z,0.47
2022-12-09T03:44:39.259Z,0.41
2022-12-09T03:50:11.548Z,0.3
2022-12-09T03:55:43.186Z,0.22
2022-12-09T04:01:19.157Z,0.17
2022-12-09T04:06:50.528Z,0.18
2022-12-09T04:12:22.462Z,0.11
2022-12-09T04:17:54.282Z,0.12
2022-12-09T04:23:26.140Z,0.12
2022-12-09T04:28:57.522Z,0.07
2022-12-09T04:34:29.593Z,-0.05
2022-12-09T04:40:01.381Z,-0.07
2022-12-09T04:45:33.132Z,-0.12
2022-12-09T04:51:04.394Z,-0.13
2022-12-09T04:56:36.490Z,-0.12
2022-12-09T05:02:14.290Z,-0.11
2022-12-09T05:07:46.800Z,-0.13
2022-12-09T05:13:17.879Z,-0.12
2022-12-09T05:18:49.889Z,-0.21
2022-12-09T05:24:21.288Z,-0.24
2022-12-09T05:29:53.189Z,-0.29
2022-12-09T05:35:24.843Z,-0.08
2022-12-09T05:40:56.401Z,0.02
2022-12-09T05:46:28.257Z,-0.02
2022-12-09T05:51:59.736Z,0.05
2022-12-09T05:57:31.797Z,0.03
2022-12-09T06:03:07.989Z,0.11
2022-12-09T06:08:39.935Z,0.03
2022-12-09T06:14:12.074Z,-0.02
2022-12-09T06:19:43.126Z,-0.04
2022-12-09T06:25:14.786Z,-0.14
2022-12-09T06:30:46.513Z,-0.12
2022-12-09T06:36:18.120Z,-0.17
2022-12-09T06:41:49.762Z,-0.11
2022-12-09T06:47:21.488Z,-0.09
2022-12-09T06:52:53.272Z,-0.13
2022-12-09T06:58:24.960Z,-0.08
2022-12-09T07:04:01.236Z,-0.14
2022-12-09T07:09:33.258Z,-0.08
2022-12-09T07:15:05.596Z,-0.03
2022-12-09T07:20:36.736Z,0.09
2022-12-09T07:26:08.086Z,0.1
2022-12-09T07:31:39.883Z,0.18
2022-12-09T07:37:12.027Z,0.21
2022-12-09T07:42:43.531Z,0.36
2022-12-09T07:48:15.197Z,0.35
2022-12-09T07:53:47.105Z,0.48
2022-12-09T07:59:18.469Z,0.62
2022-12-09T08:04:54.605Z,0.7
2022-12-09T08:10:26.646Z,0.72
2022-12-09T08:15:58.196Z,0.84
2022-12-09T08:21:30.109Z,0.66
2022-12-09T08:27:01.332Z,0.71
2022-12-09T08:32:33.456Z,0.71
2022-12-09T08:38:04.875Z,0.61
2022-12-09T08:43:36.854Z,0.52
2022-12-09T08:49:08.349Z,0.89
2022-12-09T08:54:40.076Z,1.02
2022-12-09T09:00:12.119Z,1.03
2022-12-09T09:05:50.273Z,1.15
2022-12-09T09:11:21.595Z,1.27
2022-12-09T09:16:53.722Z,1.08
2022-12-09T09:22:24.957Z,1.4
2022-12-09T09:27:57.185Z,1.03
2022-12-09T09:33:28.950Z,1.26
2022-12-09T09:39:00.262Z,1.25
2022-12-09T09:44:32.408Z,1.6
2022-12-09T09:50:03.769Z,1.69
2022-12-09T09:55:35.385Z,1.91
2022-12-09T10:01:07.412Z,1.46
2022-12-09T10:06:43.515Z,1.37
2022-12-09T10:12:15.342Z,1.55
2022-12-09T10:17:46.877Z,2.03
2022-12-09T10:23:18.405Z,1.65
2022-12-09T10:28:50.273Z,1.97
2022-12-09T10:34:22.099Z,2.13
2022-12-09T10:39:53.520Z,2.13
2022-12-09T10:45:32.140Z,2.24
2022-12-09T10:50:56.943Z,2.36
2022-12-09T10:56:28.855Z,2.46
2022-12-09T11:02:01.800Z,2.15
2022-12-09T11:07:36.507Z,1.92
2022-12-09T11:13:08.265Z,2.28
2022-12-09T11:18:40.281Z,2.36
2022-12-09T11:24:11.902Z,2.37
2022-12-09T11:29:44.267Z,2.21
2022-12-09T11:35:15.425Z,2.28
2022-12-09T11:40:47.221Z,2.11
2022-12-09T11:46:18.536Z,2.24
2022-12-09T11:51:50.216Z,2.57
2022-12-09T11:57:21.968Z,2.59
2022-12-09T12:02:53.709Z,2.51
2022-12-09T12:08:31.832Z,2.5
2022-12-09T12:14:03.911Z,2.81
2022-12-09T12:19:35.274Z,2.85
2022-12-09T12:25:09.839Z,3.02
2022-12-09T12:30:38.702Z,3.16
2022-12-09T12:36:10.526Z,2.68
2022-12-09T12:41:42.248Z,2.87
2022-12-09T12:47:13.876Z,2.43
2022-12-09T12:52:55.888Z,2.64
2022-12-09T12:58:17.448Z,3.0
2022-12-09T13:03:48.980Z,2.79
2022-12-09T13:09:27.092Z,3.11
2022-12-09T13:14:58.844Z,2.87
2022-12-09T13:20:30.584Z,2.93
2022-12-09T13:26:02.312Z,3.01
2022-12-09T13:31:34.018Z,3.04
2022-12-09T13:37:05.739Z,2.98
2022-12-09T13:42:39.704Z,3.3
2022-12-09T13:48:13.389Z,3.29
2022-12-09T13:53:45.591Z,3.33
2022-12-09T13:59:12.660Z,3.23
2022-12-09T14:04:44.420Z,3.48
2022-12-09T14:10:20.492Z,3.3
2022-12-09T14:15:52.265Z,3.27
2022-12-09T14:21:23.889Z,3.41
2022-12-09T14:26:55.700Z,3.53
2022-12-09T14:32:27.720Z,3.49
2022-12-09T14:37:59.092Z,3.4
2022-12-09T14:43:30.809Z,3.56
2022-12-09T14:49:02.545Z,3.56
2022-12-09T14:54:34.423Z,3.5
2022-12-09T15:00:06.384Z,3.51
2022-12-09T15:05:37.821Z,3.37
2022-12-09T15:11:13.780Z,3.57
2022-12-09T15:16:49.224Z,3.37
2022-12-09T15:22:17.241Z,3.22
2022-12-09T15:27:48.964Z,3.3
2022-12-09T15:33:20.654Z,3.3
2022-12-09T15:38:52.413Z,3.32
2022-12-09T15:44:24.540Z,3.31
2022-12-09T15:49:55.867Z,3.38
2022-12-09T15:55:27.684Z,3.41
2022-12-09T16:00:59.376Z,3.45
2022-12-09T16:06:31.052Z,3.4
2022-12-09T16:12:07.198Z,3.52
2022-12-09T16:17:39.075Z,3.49
2022-12-09T16:23:10.627Z,3.57
2022-12-09T16:28:42.384Z,3.5
2022-12-09T16:34:15.000Z,3.53
2022-12-09T16:39:46.051Z,3.57
2022-12-09T16:45:17.579Z,3.6
2022-12-09T16:50:49.308Z,3.61
2022-12-09T16:56:21.044Z,3.61
2022-12-09T17:01:52.964Z,3.53
2022-12-09T17:07:24.439Z,3.52
2022-12-09T17:13:02.628Z,3.56
2022-12-09T17:18:34.273Z,3.58
2022-12-09T17:24:06.053Z,3.56
2022-12-09T17:29:37.780Z,3.67
2022-12-09T17:35:12.696Z,3.66
2022-12-09T17:40:41.380Z,3.65
2022-12-09T17:46:12.920Z,3.64
2022-12-09T17:51:44.989Z,3.59
2022-12-09T17:57:16.284Z,3.53
2022-12-09T18:02:48.058Z,3.47
2022-12-09T18:08:19.805Z,3.43
2022-12-09T18:13:57.876Z,3.45
2022-12-09T18:19:29.564Z,3.39
2022-12-09T18:25:01.314Z,3.47
2022-12-09T18:30:33.098Z,3.33
2022-12-09T18:36:04.729Z,3.37
2022-12-09T18:41:36.471Z,3.32
2022-12-09T18:47:08.137Z,3.4
2022-12-09T18:52:39.872Z,3.44
2022-12-09T18:58:11.610Z,3.44
2022-12-09T19:03:43.437Z,3.39
2022-12-09T19:09:15.080Z,3.45
2022-12-09T19:14:51.504Z,3.44
2022-12-09T19:20:22.932Z,3.42
2022-12-09T19:25:54.980Z,3.41
2022-12-09T19:31:26.427Z,3.39
2022-12-09T19:36:58.113Z,3.46
2022-12-09T19:42:29.797Z,3.52
2022-12-09T19:48:01.692Z,3.46
2022-12-09T19:53:33.252Z,3.49
2022-12-09T19:59:04.990Z,3.49
2022-12-09T20:04:48.493Z,3.49
2022-12-09T20:10:08.573Z,3.49
2022-12-09T20:15:44.568Z,3.56
2022-12-09T20:21:16.350Z,3.5
2022-12-09T20:26:48.002Z,3.54
2022-12-09T20:32:19.701Z,3.52
2022-12-09T20:37:51.425Z,3.53
2022-12-09T20:43:23.132Z,3.55
2022-12-09T20:48:54.889Z,3.53
2022-12-09T20:54:27.135Z,3.51
2022-12-09T20:59:58.441Z,3.5
2022-12-09T21:05:30.219Z,3.48
2022-12-09T21:11:01.894Z,3.59
2022-12-09T21:16:38.111Z,3.5
2022-12-09T21:22:10.124Z,3.37
2022-12-09T21:27:41.494Z,3.41
2022-12-09T21:33:13.419Z,3.39
2022-12-09T21:38:44.945Z,3.39
2022-12-09T21:44:16.899Z,3.37
2022-12-09T21:49:48.411Z,3.37
2022-12-09T21:55:20.296Z,3.38
2022-12-09T22:00:52.271Z,3.38
2022-12-09T22:06:23.595Z,3.38
2022-12-09T22:11:55.576Z,3.38
2022-12-09T22:17:31.456Z,3.34
2022-12-09T22:23:03.140Z,3.31
2022-12-09T22:28:34.889Z,3.37
2022-12-09T22:34:06.613Z,3.42
2022-12-09T22:39:38.301Z,3.24
2022-12-09T22:45:10.068Z,3.24
2022-12-09T22:50:41.740Z,3.32
2022-12-09T22:56:13.529Z,3.34
2022-12-09T23:01:45.191Z,3.37
2022-12-09T23:07:16.951Z,3.36
2022-12-09T23:12:48.617Z,3.41
2022-12-09T23:18:24.733Z,3.39
2022-12-09T23:23:56.443Z,3.36
2022-12-09T23:29:28.189Z,3.37
2022-12-09T23:35:03.126Z,3.34
2022-12-09T23:40:31.640Z,3.4
2022-12-09T23:46:03.364Z,3.32
2022-12-09T23:51:35.081Z,3.37
2022-12-09T23:57:06.754Z,3.38
